Time;durP1;ratioP1;P1;durP2;ratioP2;P2;SDS_P1;SDS_P2;PMS_P1;PMS_P2;Temp;Humidity;BMP_temperature;BMP_pressure;BME280_temperature;BME280_humidity;BME280_pressure;Samples;Min_cycle;Max_cycle;Signal;HPM_P1;HPM_P2
2022/01/20 00:02:05;;;;;;;24.20;2.83;;;7.30;99.90;;;;;;5050223;28;20025;-72
2022/01/20 00:26:06;;;;;;;18.73;3.33;;;7.30;99.90;;;;;;5056501;28;20116;-71
2022/01/20 00:28:42;;;;;;;14.60;2.42;;;7.30;99.90;;;;;;5056980;28;20033;-70
2022/01/20 00:38:40;;;;;;;16.30;2.13;;;7.20;99.90;;;;;;5058625;28;20043;-72
2022/01/20 00:41:09;;;;;;;17.75;3.10;;;7.20;99.90;;;;;;5040381;28;20028;-72
2022/01/20 00:43:35;;;;;;;25.60;2.78;;;7.20;99.90;;;;;;5058251;28;20023;-72
2022/01/20 00:46:00;;;;;;;25.13;3.53;;;7.20;99.90;;;;;;5057703;28;20131;-70
2022/01/20 00:48:26;;;;;;;20.25;2.63;;;7.20;99.90;;;;;;5066910;28;20530;-72
2022/01/20 00:50:51;;;;;;;13.75;2.03;;;7.20;99.90;;;;;;5078578;28;20127;-72
2022/01/20 00:53:17;;;;;;;15.35;2.45;;;7.20;99.90;;;;;;5056449;28;20021;-72
2022/01/20 00:55:43;;;;;;;16.33;2.55;;;7.20;99.90;;;;;;5055388;28;20033;-72
2022/01/20 00:58:09;;;;;;;20.15;2.40;;;7.20;99.90;;;;;;5055345;28;20025;-70
2022/01/20 01:00:35;;;;;;;20.20;2.78;;;7.20;99.90;;;;;;5054855;28;20467;-71
2022/01/20 01:03:01;;;;;;;14.38;2.50;;;7.30;99.90;;;;;;5054979;28;20033;-70
2022/01/20 01:05:27;;;;;;;14.25;2.08;;;7.30;99.90;;;;;;5037062;28;20025;-71
2022/01/20 01:07:55;;;;;;;9.60;1.90;;;7.40;99.90;;;;;;5055026;28;20032;-72
2022/01/20 01:10:33;;;;;;;12.57;1.80;;;7.40;99.90;;;;;;5055203;28;20025;-72
2022/01/20 01:13:12;;;;;;;21.20;2.90;;;7.40;99.90;;;;;;5054540;28;20025;-71
2022/01/20 01:15:39;;;;;;;18.45;2.45;;;7.50;99.90;;;;;;5036020;28;20036;-72
2022/01/20 01:23:41;;;;;;;15.48;2.92;;;7.50;99.90;;;;;;5038025;28;20116;-72
2022/01/20 01:26:10;;;;;;;14.70;2.67;;;7.40;99.90;;;;;;5062970;28;20374;-72
2022/01/20 01:28:36;;;;;;;13.35;2.30;;;7.40;99.90;;;;;;5074133;28;20028;-72
2022/01/20 01:33:54;;;;;;;13.82;3.60;;;7.30;99.90;;;;;;5074342;28;20087;-72
2022/01/20 01:36:22;;;;;;;16.15;2.55;;;7.30;99.90;;;;;;5074268;28;20024;-72
2022/01/20 01:38:49;;;;;;;14.65;2.22;;;7.20;99.90;;;;;;5074516;28;20089;-72
2022/01/20 01:41:19;;;;;;;19.65;3.70;;;7.10;99.90;;;;;;5074340;28;20453;-72
2022/01/20 01:43:48;;;;;;;12.85;2.17;;;7.00;99.90;;;;;;5038873;28;20451;-72
2022/01/20 01:46:15;;;;;;;22.42;2.92;;;7.00;99.90;;;;;;5055422;28;20060;-73
2022/01/20 01:48:42;;;;;;;23.55;2.92;;;7.00;99.90;;;;;;5060728;28;20037;-73
2022/01/20 01:51:09;;;;;;;16.15;2.20;;;7.00;99.90;;;;;;5054138;28;20029;-72
2022/01/20 01:53:36;;;;;;;25.00;5.05;;;6.90;99.90;;;;;;5054722;28;20020;-71
2022/01/20 01:56:03;;;;;;;22.58;3.47;;;7.00;99.90;;;;;;5054058;28;20029;-72
2022/01/20 01:58:28;;;;;;;18.35;2.95;;;7.00;99.90;;;;;;5053888;28;20037;-71
2022/01/20 02:00:56;;;;;;;28.27;3.03;;;7.00;99.90;;;;;;5054477;28;20021;-73
2022/01/20 02:03:23;;;;;;;17.20;2.95;;;7.10;99.90;;;;;;5053672;28;20033;-73
2022/01/20 02:06:51;;;;;;;17.52;2.80;;;7.10;99.90;;;;;;5035212;28;20151;-73
2022/01/20 02:08:51;;;;;;;11.88;2.00;;;7.20;99.90;;;;;;5042808;28;20052;-71
2022/01/20 02:19:29;;;;;;;15.23;2.40;;;7.00;99.90;;;;;;5053381;28;20385;-72
2022/01/20 02:22:01;;;;;;;20.67;2.72;;;6.90;99.90;;;;;;5053389;28;20103;-71
2022/01/20 02:24:31;;;;;;;10.07;2.40;;;6.80;99.90;;;;;;5053618;28;20047;-71
2022/01/20 02:26:57;;;;;;;15.65;2.38;;;6.80;99.90;;;;;;5051249;28;20032;-72
2022/01/20 02:29:23;;;;;;;20.30;3.38;;;6.80;99.90;;;;;;5052229;28;20800;-72
2022/01/20 02:31:56;;;;;;;13.52;2.10;;;6.80;99.90;;;;;;5052726;28;20079;-72
2022/01/20 02:34:24;;;;;;;19.83;2.25;;;6.80;99.90;;;;;;5052786;28;20052;-72
2022/01/20 02:36:49;;;;;;;19.55;3.08;;;6.80;99.90;;;;;;5052876;28;20212;-73
2022/01/20 02:47:20;;;;;;;9.85;1.70;;;7.00;99.90;;;;;;5052755;28;20063;-73
2022/01/20 02:49:46;;;;;;;13.73;2.33;;;6.90;99.90;;;;;;5072216;28;20033;-72
2022/01/20 02:52:12;;;;;;;8.25;1.73;;;6.80;99.90;;;;;;5054631;28;20374;-71
2022/01/20 02:54:38;;;;;;;10.63;2.15;;;6.70;99.90;;;;;;5053251;28;20036;-72
2022/01/20 02:57:05;;;;;;;12.68;1.63;;;6.60;99.90;;;;;;5034126;28;20033;-72
2022/01/20 02:59:32;;;;;;;13.07;1.95;;;6.60;99.90;;;;;;5051287;28;20033;-71
2022/01/20 03:01:57;;;;;;;14.68;2.28;;;6.60;99.90;;;;;;5051606;28;20423;-73
2022/01/20 03:04:26;;;;;;;10.52;1.40;;;6.50;99.90;;;;;;5052466;28;20033;-71
2022/01/20 03:06:52;;;;;;;10.38;1.83;;;6.60;99.90;;;;;;5051915;28;20021;-71
2022/01/20 03:09:17;;;;;;;13.30;2.42;;;6.60;99.90;;;;;;5052512;28;20044;-71
2022/01/20 03:11:43;;;;;;;13.05;2.22;;;6.60;99.90;;;;;;5051038;28;20017;-73
2022/01/20 03:14:08;;;;;;;11.38;2.40;;;6.70;99.90;;;;;;5056999;28;20537;-71
2022/01/20 03:16:34;;;;;;;13.18;2.72;;;6.80;99.90;;;;;;5064184;28;20462;-73
2022/01/20 03:18:59;;;;;;;11.95;2.40;;;6.90;99.90;;;;;;5072546;28;20032;-73
2022/01/20 03:21:25;;;;;;;15.02;2.35;;;6.90;99.90;;;;;;5035780;28;20086;-72
2022/01/20 03:23:51;;;;;;;10.65;1.92;;;7.00;99.90;;;;;;5052683;28;20029;-73
2022/01/20 03:26:16;;;;;;;6.95;2.08;;;7.00;99.90;;;;;;5070624;28;20465;-72
2022/01/20 03:28:42;;;;;;;16.50;2.13;;;7.00;99.90;;;;;;5072429;28;20043;-72
2022/01/20 03:31:08;;;;;;;6.35;1.52;;;7.10;99.90;;;;;;5072529;28;20070;-72
2022/01/20 03:33:34;;;;;;;11.20;2.03;;;7.00;99.90;;;;;;5054089;28;20425;-71
2022/01/20 03:35:59;;;;;;;13.40;1.60;;;7.00;99.90;;;;;;5052421;28;20044;-71
2022/01/20 03:38:25;;;;;;;12.82;1.75;;;6.90;99.90;;;;;;5052359;28;20033;-75
2022/01/20 03:40:51;;;;;;;15.57;1.65;;;6.70;99.90;;;;;;5052365;28;20029;-73
2022/01/20 03:43:17;;;;;;;12.45;1.45;;;6.60;99.90;;;;;;5065072;28;20040;-74
2022/01/20 03:45:47;;;;;;;14.60;2.72;;;6.60;99.90;;;;;;5072398;28;20119;-72
2022/01/20 03:48:12;;;;;;;20.55;3.03;;;6.60;99.90;;;;;;5072401;28;20088;-71
2022/01/20 03:53:23;;;;;;;12.25;1.88;;;6.60;99.90;;;;;;5071973;28;20404;-72
2022/01/20 03:55:49;;;;;;;16.45;2.40;;;6.50;99.90;;;;;;5072267;28;20054;-74
2022/01/20 03:58:15;;;;;;;16.05;2.00;;;6.50;99.90;;;;;;5052892;28;20041;-71
2022/01/20 04:00:41;;;;;;;13.68;1.67;;;6.40;99.90;;;;;;5052348;28;20105;-73
2022/01/20 04:03:06;;;;;;;10.65;1.80;;;6.40;99.90;;;;;;5051959;28;20033;-74
2022/01/20 04:05:32;;;;;;;11.85;2.15;;;6.30;99.90;;;;;;5052001;28;20021;-70
2022/01/20 04:07:58;;;;;;;10.23;2.15;;;6.30;99.90;;;;;;5052794;28;20071;-71
2022/01/20 04:10:23;;;;;;;19.77;3.25;;;6.30;99.90;;;;;;5071836;28;20044;-71
2022/01/20 04:12:49;;;;;;;14.30;2.65;;;6.20;99.90;;;;;;5072185;28;20021;-72
2022/01/20 04:15:17;;;;;;;14.90;2.83;;;6.30;99.90;;;;;;5070343;28;20103;-72
2022/01/20 04:17:50;;;;;;;21.67;3.22;;;6.30;99.90;;;;;;5052069;28;20167;-72
2022/01/20 04:20:16;;;;;;;18.00;2.40;;;6.30;99.90;;;;;;5051899;28;20036;-71
2022/01/20 04:22:42;;;;;;;18.88;3.60;;;6.40;99.90;;;;;;5052010;28;20041;-73
2022/01/20 04:25:07;;;;;;;18.38;2.72;;;6.40;99.90;;;;;;5051821;28;20463;-72
2022/01/20 04:27:33;;;;;;;19.13;3.33;;;6.50;99.90;;;;;;5034747;28;20028;-73
2022/01/20 04:29:59;;;;;;;22.02;4.18;;;6.50;99.90;;;;;;5055589;28;20039;-72
2022/01/20 04:32:24;;;;;;;22.10;2.88;;;6.50;99.90;;;;;;5056284;28;20072;-73
2022/01/20 04:34:51;;;;;;;16.17;2.40;;;6.50;99.90;;;;;;5061266;28;20091;-72
2022/01/20 04:37:17;;;;;;;11.98;2.17;;;6.50;99.90;;;;;;5071860;28;20032;-72
2022/01/20 04:39:48;;;;;;;18.35;2.78;;;6.60;99.90;;;;;;5073022;28;20020;-71
2022/01/20 04:42:13;;;;;;;19.08;2.60;;;6.60;99.90;;;;;;5055600;28;20021;-72
2022/01/20 04:44:46;;;;;;;12.55;2.58;;;6.70;99.90;;;;;;5055393;28;20091;-71
2022/01/20 04:57:53;;;;;;;12.48;2.33;;;6.70;99.90;;;;;;5057629;28;20035;-72
2022/01/20 05:00:18;;;;;;;15.05;1.83;;;6.70;99.90;;;;;;5056943;28;20385;-71
2022/01/20 05:02:44;;;;;;;12.18;2.97;;;6.70;99.90;;;;;;5067842;28;20021;-71
2022/01/20 05:05:10;;;;;;;10.18;1.67;;;6.70;99.90;;;;;;5054767;28;20783;-72
2022/01/20 05:07:35;;;;;;;12.57;1.80;;;6.70;99.90;;;;;;5050079;28;20024;-72
2022/01/20 05:10:05;;;;;;;10.77;1.95;;;6.60;99.90;;;;;;5074783;28;20473;-70
2022/01/20 05:15:15;;;;;;;12.95;2.53;;;6.70;99.90;;;;;;5075192;28;20067;-70
2022/01/20 05:17:41;;;;;;;14.18;2.80;;;6.70;99.90;;;;;;5074870;28;20035;-71
2022/01/20 05:20:07;;;;;;;7.32;1.77;;;6.70;99.90;;;;;;5075054;28;20028;-71
2022/01/20 05:22:33;;;;;;;16.75;2.55;;;6.70;99.90;;;;;;5074906;28;20508;-70
2022/01/20 05:24:58;;;;;;;11.77;3.00;;;6.70;99.90;;;;;;5073961;28;20058;-72
2022/01/20 05:27:24;;;;;;;8.18;1.42;;;6.70;99.90;;;;;;5074794;28;20074;-70
2022/01/20 05:29:49;;;;;;;15.30;2.78;;;6.70;99.90;;;;;;5060376;28;20040;-73
2022/01/20 05:32:15;;;;;;;15.35;1.88;;;6.60;99.90;;;;;;5054312;28;20444;-72
2022/01/20 05:34:41;;;;;;;11.75;2.00;;;6.50;99.90;;;;;;5054486;28;20056;-73
2022/01/20 05:37:06;;;;;;;9.93;2.25;;;6.40;99.90;;;;;;5054593;28;20079;-72
2022/01/20 05:39:32;;;;;;;22.38;3.83;;;6.40;99.90;;;;;;5036134;28;20051;-70
2022/01/20 05:41:57;;;;;;;10.82;2.55;;;6.40;99.90;;;;;;5055302;28;20477;-70
2022/01/20 05:44:23;;;;;;;13.55;2.22;;;6.40;99.90;;;;;;5073575;28;20056;-71
2022/01/20 05:46:52;;;;;;;12.68;2.20;;;6.40;99.90;;;;;;5074308;28;20035;-72
2022/01/20 05:49:21;;;;;;;6.43;1.45;;;6.30;99.90;;;;;;5074362;28;20071;-70
2022/01/20 05:51:53;;;;;;;13.75;3.10;;;6.30;99.90;;;;;;5074528;28;20470;-72
2022/01/20 05:54:20;;;;;;;21.80;2.95;;;6.30;99.90;;;;;;5074255;28;20021;-71
2022/01/20 05:56:45;;;;;;;12.02;2.30;;;6.30;99.90;;;;;;5070384;28;20024;-71
2022/01/20 05:59:12;;;;;;;10.27;2.17;;;6.30;99.90;;;;;;5072684;28;20109;-72
2022/01/20 06:01:38;;;;;;;20.48;2.97;;;6.40;99.90;;;;;;5074250;28;20031;-70
2022/01/20 06:04:06;;;;;;;10.77;2.45;;;6.20;99.90;;;;;;5074031;28;20025;-71
2022/01/20 06:06:32;;;;;;;7.63;2.55;;;6.00;99.90;;;;;;5074012;28;20031;-70
2022/01/20 06:08:58;;;;;;;8.55;0.98;;;5.80;99.90;;;;;;5074052;28;20486;-71
2022/01/20 06:11:23;;;;;;;11.13;1.30;;;5.50;99.90;;;;;;5073946;28;20025;-71
2022/01/20 06:13:49;;;;;;;11.73;2.25;;;5.30;99.90;;;;;;5074073;28;20032;-71
2022/01/20 06:16:15;;;;;;;15.55;2.40;;;5.20;99.90;;;;;;5073320;28;20024;-71
2022/01/20 06:18:41;;;;;;;7.43;2.53;;;5.10;99.90;;;;;;5073803;28;20094;-71
2022/01/20 06:21:06;;;;;;;8.63;2.33;;;5.10;99.90;;;;;;5073886;28;20036;-71
2022/01/20 06:23:33;;;;;;;19.52;3.08;;;5.10;99.90;;;;;;5073784;28;20020;-71
2022/01/20 06:26:04;;;;;;;18.63;3.20;;;5.00;99.90;;;;;;5052379;28;20032;-71
2022/01/20 06:28:32;;;;;;;11.93;2.47;;;5.10;99.90;;;;;;5060678;28;20029;-71
2022/01/20 06:30:58;;;;;;;12.25;2.38;;;5.10;99.90;;;;;;5056673;28;20478;-71
2022/01/20 06:33:23;;;;;;;14.25;2.05;;;5.10;99.90;;;;;;5062770;28;20073;-70
2022/01/20 06:35:49;;;;;;;8.40;2.47;;;5.10;99.90;;;;;;5063768;28;20122;-71
2022/01/20 06:38:15;;;;;;;10.98;2.10;;;5.20;99.90;;;;;;5062984;28;20025;-71
2022/01/20 06:40:41;;;;;;;11.82;2.00;;;5.20;99.90;;;;;;5051395;28;20121;-71
2022/01/20 06:43:08;;;;;;;10.63;1.65;;;5.30;99.90;;;;;;5055812;28;20458;-71
2022/01/20 06:45:34;;;;;;;12.75;2.95;;;5.30;99.90;;;;;;5059943;28;20379;-71
2022/01/20 06:47:59;;;;;;;13.85;2.08;;;5.30;99.90;;;;;;5062520;28;20431;-72
2022/01/20 06:50:25;;;;;;;16.60;3.42;;;5.40;99.90;;;;;;5066405;28;20048;-72
2022/01/20 06:52:52;;;;;;;13.90;2.90;;;5.40;99.90;;;;;;5056175;28;20029;-71
2022/01/20 06:55:18;;;;;;;12.25;2.45;;;5.40;99.90;;;;;;5066822;28;20035;-71
2022/01/20 06:57:44;;;;;;;9.02;3.15;;;5.50;99.90;;;;;;5052685;28;20029;-71
2022/01/20 07:00:14;;;;;;;14.13;3.17;;;5.50;99.90;;;;;;5052807;28;20075;-71
2022/01/20 07:02:40;;;;;;;12.32;1.83;;;5.50;99.90;;;;;;5052923;28;20108;-72
2022/01/20 07:05:06;;;;;;;16.10;2.63;;;5.50;99.90;;;;;;5053121;28;20021;-71
2022/01/20 07:07:32;;;;;;;14.65;2.25;;;5.50;99.90;;;;;;5058483;28;20044;-72
2022/01/20 07:09:59;;;;;;;10.98;2.40;;;5.50;99.90;;;;;;5071097;28;20040;-71
2022/01/20 07:12:24;;;;;;;16.75;2.58;;;5.60;99.90;;;;;;5068598;28;20437;-71
2022/01/20 07:14:50;;;;;;;17.08;2.55;;;5.60;99.90;;;;;;5053066;28;19996;-71
2022/01/20 07:17:16;;;;;;;17.63;3.45;;;5.50;99.90;;;;;;5054287;28;20108;-71
2022/01/20 07:19:41;;;;;;;20.48;3.60;;;5.50;99.90;;;;;;5072309;28;20394;-71
2022/01/20 07:22:07;;;;;;;17.30;3.83;;;5.50;99.90;;;;;;5072319;28;20043;-72
2022/01/20 07:24:33;;;;;;;20.00;4.18;;;5.50;99.90;;;;;;5052780;28;20068;-71
2022/01/20 07:26:58;;;;;;;16.65;3.10;;;5.60;99.90;;;;;;5062207;28;20028;-72
2022/01/20 07:29:25;;;;;;;15.48;2.90;;;5.60;99.90;;;;;;5071413;28;20040;-70
2022/01/20 07:31:51;;;;;;;12.73;2.40;;;5.60;99.90;;;;;;5052836;28;20040;-72
2022/01/20 07:34:17;;;;;;;16.95;2.47;;;5.60;99.90;;;;;;5052704;28;20074;-70
2022/01/20 07:36:43;;;;;;;12.95;2.03;;;5.60;99.90;;;;;;5054454;28;20028;-71
2022/01/20 07:39:08;;;;;;;15.65;3.08;;;5.60;99.90;;;;;;5072604;28;20035;-72
2022/01/20 07:41:34;;;;;;;13.27;3.33;;;5.60;99.90;;;;;;5071995;28;20024;-70
2022/01/20 07:43:59;;;;;;;15.18;2.25;;;5.60;99.90;;;;;;5054201;28;20055;-72
2022/01/20 07:46:25;;;;;;;20.58;2.95;;;5.60;99.90;;;;;;5056174;28;20052;-72
2022/01/20 07:48:51;;;;;;;15.68;3.00;;;5.70;99.90;;;;;;5034295;28;20045;-72
2022/01/20 07:51:17;;;;;;;14.27;2.75;;;5.70;99.90;;;;;;5052392;28;20056;-72
2022/01/20 07:53:43;;;;;;;12.18;1.80;;;5.80;99.90;;;;;;5052206;28;20091;-73
2022/01/20 07:56:09;;;;;;;18.85;3.47;;;5.90;99.90;;;;;;5072111;28;20032;-70
2022/01/20 07:58:35;;;;;;;13.93;2.58;;;5.90;99.90;;;;;;5059378;28;20032;-71
2022/01/20 08:01:02;;;;;;;17.08;2.50;;;6.00;99.90;;;;;;5069562;28;20060;-71
2022/01/20 08:03:28;;;;;;;11.35;2.92;;;6.10;99.90;;;;;;5076573;28;20486;-72
2022/01/20 08:05:54;;;;;;;15.65;2.58;;;6.10;99.90;;;;;;5059005;28;20025;-72
2022/01/20 08:08:19;;;;;;;11.95;2.40;;;6.10;99.90;;;;;;5056150;28;20027;-71
2022/01/20 08:10:45;;;;;;;16.67;2.35;;;6.20;99.90;;;;;;5056731;28;20048;-72
2022/01/20 08:13:10;;;;;;;13.48;2.53;;;6.30;99.90;;;;;;5055509;28;20087;-72
2022/01/20 08:15:36;;;;;;;15.98;3.10;;;6.30;99.90;;;;;;5050258;28;20051;-71
2022/01/20 08:18:02;;;;;;;13.38;2.40;;;6.30;99.90;;;;;;5075891;28;20028;-72
2022/01/20 08:20:28;;;;;;;12.23;2.17;;;6.30;99.90;;;;;;5064926;28;20100;-71
2022/01/20 08:22:53;;;;;;;24.05;3.30;;;6.40;99.90;;;;;;5037903;28;20123;-73
2022/01/20 08:25:19;;;;;;;26.30;3.45;;;6.40;99.90;;;;;;5064393;28;20028;-73
2022/01/20 08:27:47;;;;;;;17.75;2.78;;;6.40;99.90;;;;;;5076060;28;20107;-72
2022/01/20 08:30:15;;;;;;;15.68;3.08;;;6.40;99.90;;;;;;5069722;28;20029;-71
2022/01/20 08:32:42;;;;;;;13.65;4.25;;;6.40;99.90;;;;;;5056043;28;20071;-72
2022/01/20 08:35:09;;;;;;;13.85;2.90;;;6.40;99.90;;;;;;5060856;28;20017;-72
2022/01/20 08:37:37;;;;;;;18.23;3.03;;;6.40;99.90;;;;;;5075348;28;20418;-72
2022/01/20 08:40:05;;;;;;;18.63;3.30;;;6.30;99.90;;;;;;5070843;28;20032;-72
2022/01/20 08:42:31;;;;;;;13.77;2.08;;;6.20;99.90;;;;;;5064412;28;20431;-72
2022/01/20 08:44:57;;;;;;;15.73;2.60;;;6.20;99.90;;;;;;5056950;28;20049;-71
2022/01/20 08:47:23;;;;;;;14.52;3.90;;;6.10;99.90;;;;;;5056729;28;20489;-70
2022/01/20 08:49:50;;;;;;;14.25;3.08;;;6.10;99.90;;;;;;5057227;28;20044;-71
2022/01/20 08:52:17;;;;;;;12.57;2.08;;;6.10;99.90;;;;;;5074781;28;20022;-71
2022/01/20 08:54:47;;;;;;;14.85;3.03;;;6.10;99.90;;;;;;5055026;28;20029;-72
2022/01/20 08:57:16;;;;;;;14.77;2.70;;;6.10;99.90;;;;;;5055608;28;20020;-71
2022/01/20 08:59:42;;;;;;;17.30;3.45;;;6.20;99.90;;;;;;5074613;28;20028;-70
2022/01/20 09:02:11;;;;;;;11.02;3.33;;;6.30;99.90;;;;;;5073500;28;20085;-72
2022/01/20 09:04:37;;;;;;;13.75;2.50;;;6.40;99.90;;;;;;5075421;28;20044;-70
2022/01/20 09:07:03;;;;;;;17.13;2.55;;;6.50;99.90;;;;;;5057957;28;20454;-71
2022/01/20 09:09:28;;;;;;;11.70;2.40;;;6.60;99.90;;;;;;5056321;28;20478;-71
2022/01/20 09:12:16;;;;;;;11.63;2.35;;;6.70;99.90;;;;;;5056122;28;20029;-70
2022/01/20 09:17:30;;;;;;;11.10;2.35;;;6.80;99.90;;;;;;5074796;28;20070;-71
2022/01/20 09:19:57;;;;;;;14.43;2.97;;;6.90;99.90;;;;;;5065835;28;20450;-71
2022/01/20 09:22:24;;;;;;;12.80;2.03;;;6.90;99.90;;;;;;5070708;28;20028;-72
2022/01/20 09:24:49;;;;;;;9.35;2.40;;;7.00;99.90;;;;;;5067609;28;20029;-72
2022/01/20 09:27:15;;;;;;;12.38;2.42;;;7.00;99.90;;;;;;5047593;28;20390;-71
2022/01/20 09:29:41;;;;;;;7.70;1.90;;;7.00;99.90;;;;;;5070064;28;20055;-70
2022/01/20 09:32:10;;;;;;;6.60;1.13;;;7.00;99.90;;;;;;5074985;28;20026;-72
2022/01/20 09:34:36;;;;;;;9.00;1.92;;;7.00;99.90;;;;;;5067531;28;20029;-72
2022/01/20 09:37:02;;;;;;;17.70;2.08;;;7.10;99.90;;;;;;5054250;28;20040;-71
2022/01/20 09:39:28;;;;;;;9.70;2.03;;;7.10;99.90;;;;;;5060014;28;20071;-73
2022/01/20 09:41:54;;;;;;;5.18;1.00;;;7.10;99.90;;;;;;5072569;28;20129;-72
2022/01/20 09:44:20;;;;;;;14.52;1.80;;;7.10;99.90;;;;;;5068352;28;20474;-72
2022/01/20 09:46:46;;;;;;;16.33;2.20;;;7.00;99.90;;;;;;5064674;28;20031;-72
2022/01/20 09:49:12;;;;;;;7.55;1.80;;;6.90;99.90;;;;;;5070812;28;20041;-72
2022/01/20 09:51:39;;;;;;;12.18;1.98;;;7.00;99.90;;;;;;5054084;28;20332;-71
2022/01/20 09:54:05;;;;;;;14.27;2.00;;;7.20;99.90;;;;;;5054987;28;20032;-72
2022/01/20 09:56:31;;;;;;;13.00;2.05;;;7.50;99.90;;;;;;5065614;28;20463;-72
2022/01/20 09:58:57;;;;;;;18.20;3.17;;;7.70;99.90;;;;;;5062949;28;20037;-72
2022/01/20 10:01:47;;;;;;;8.88;2.05;;;7.80;99.90;;;;;;5058043;28;20446;-71
2022/01/20 10:04:23;;;;;;;10.68;1.98;;;7.60;99.90;;;;;;5065535;28;20036;-72
2022/01/20 10:06:56;;;;;;;13.55;2.10;;;7.50;99.90;;;;;;5066381;28;20043;-71
2022/01/20 10:09:34;;;;;;;10.63;1.90;;;7.40;99.90;;;;;;5053448;28;20078;-71
2022/01/20 10:12:00;;;;;;;15.60;2.30;;;7.30;99.90;;;;;;5061624;28;20058;-72
2022/01/20 10:14:26;;;;;;;13.02;2.22;;;7.20;99.90;;;;;;5073774;28;20054;-72
2022/01/20 10:16:52;;;;;;;14.65;3.15;;;7.20;99.90;;;;;;5066751;28;20100;-72
2022/01/20 10:19:24;;;;;;;12.82;2.22;;;7.20;99.90;;;;;;5053669;28;20032;-71
2022/01/20 10:21:49;;;;;;;11.13;1.80;;;7.20;99.90;;;;;;5058945;28;20560;-72
2022/01/20 10:24:16;;;;;;;15.05;2.88;;;7.20;99.90;;;;;;5055340;28;20036;-71
2022/01/20 10:26:42;;;;;;;7.15;1.98;;;7.30;99.90;;;;;;5050875;28;20493;-73
2022/01/20 10:29:13;;;;;;;10.00;2.08;;;7.60;99.90;;;;;;5073535;28;20060;-71
2022/01/20 10:31:51;;;;;;;12.55;1.60;;;8.00;99.90;;;;;;5071885;28;20450;-72
2022/01/20 10:34:32;;;;;;;7.47;1.73;;;8.60;99.90;;;;;;5073282;28;20024;-73
2022/01/20 10:37:01;;;;;;;9.60;2.15;;;9.20;99.90;;;;;;5072421;28;20498;-72
2022/01/20 10:39:40;;;;;;;7.25;1.40;;;9.80;99.90;;;;;;5071963;28;20106;-72
2022/01/20 10:42:09;;;;;;;10.93;1.92;;;10.20;99.90;;;;;;5036748;28;20390;-74
2022/01/20 10:44:49;;;;;;;8.93;2.40;;;10.50;99.60;;;;;;5056177;28;20424;-72
2022/01/20 10:47:17;;;;;;;5.55;2.05;;;10.40;99.90;;;;;;5055836;28;20056;-71
2022/01/20 10:49:44;;;;;;;15.30;3.25;;;10.10;99.90;;;;;;5057524;28;20481;-74
2022/01/20 10:52:12;;;;;;;9.90;1.85;;;9.60;99.90;;;;;;5038763;28;20355;-72
2022/01/20 10:54:44;;;;;;;23.42;4.22;;;9.20;99.90;;;;;;5053231;28;20047;-72
2022/01/20 10:57:11;;;;;;;15.45;2.88;;;8.70;99.90;;;;;;5052553;28;20033;-71
2022/01/20 10:59:52;;;;;;;13.18;3.40;;;8.40;99.90;;;;;;5048265;28;20097;-74
2022/01/20 11:02:20;;;;;;;21.02;3.92;;;8.00;99.90;;;;;;5055638;28;20025;-72
2022/01/20 11:04:47;;;;;;;15.40;3.47;;;7.80;99.90;;;;;;5057472;28;20033;-71
2022/01/20 11:07:13;;;;;;;20.80;3.15;;;7.60;99.90;;;;;;5064346;28;20029;-73
2022/01/20 11:09:43;;;;;;;17.33;2.30;;;7.40;99.90;;;;;;5059032;28;20035;-72
2022/01/20 11:12:13;;;;;;;13.57;2.38;;;7.40;99.90;;;;;;5065494;28;20024;-73
2022/01/20 11:14:40;;;;;;;10.52;1.30;;;7.80;99.90;;;;;;5054006;28;20023;-71
2022/01/20 11:17:07;;;;;;;8.73;1.85;;;8.20;99.90;;;;;;5038339;28;20632;-70
2022/01/20 11:19:36;;;;;;;8.75;1.50;;;8.80;99.90;;;;;;5054967;28;20427;-72
2022/01/20 11:22:21;;;;;;;4.57;1.02;;;9.50;99.90;;;;;;5065303;28;20037;-71
2022/01/20 11:24:58;;;;;;;9.88;1.58;;;10.00;99.90;;;;;;5055613;28;20033;-72
2022/01/20 11:27:38;;;;;;;7.10;1.60;;;10.60;99.90;;;;;;5049819;28;20498;-72
2022/01/20 11:30:15;;;;;;;8.02;1.40;;;11.00;99.90;;;;;;5054332;28;20044;-71
2022/01/20 11:32:42;;;;;;;10.38;1.90;;;11.30;99.40;;;;;;5067116;28;20059;-70
2022/01/20 11:35:10;;;;;;;11.90;1.83;;;11.50;99.40;;;;;;5070230;28;20027;-71
2022/01/20 11:37:41;;;;;;;15.55;2.10;;;11.70;98.70;;;;;;5043261;28;20037;-72
2022/01/20 11:40:16;;;;;;;11.80;2.03;;;11.90;98.60;;;;;;5061278;28;20108;-71
2022/01/20 11:42:55;;;;;;;10.80;1.73;;;11.80;98.10;;;;;;5068559;28;20021;-71
2022/01/20 11:45:26;;;;;;;9.00;1.67;;;11.70;98.10;;;;;;5060753;28;20482;-71
2022/01/20 11:47:51;;;;;;;11.73;1.73;;;11.90;97.60;;;;;;5059172;28;20064;-72
2022/01/20 11:50:18;;;;;;;7.05;1.52;;;11.80;97.10;;;;;;5055620;28;20064;-71
2022/01/20 11:52:44;;;;;;;7.95;1.65;;;11.10;95.90;;;;;;5065883;28;20037;-71
2022/01/20 11:55:12;;;;;;;11.75;2.80;;;10.40;97.20;;;;;;5059314;28;20024;-71
2022/01/20 11:57:37;;;;;;;12.70;1.83;;;9.80;99.00;;;;;;5064337;28;20441;-70
2022/01/20 12:00:19;;;;;;;10.07;1.83;;;9.40;99.90;;;;;;5068051;28;20047;-71
2022/01/20 12:02:45;;;;;;;9.85;1.80;;;9.10;99.90;;;;;;5054899;28;20024;-71
2022/01/20 12:05:28;;;;;;;13.23;3.85;;;8.90;99.90;;;;;;5063577;28;20051;-70
2022/01/20 12:08:20;;;;;;;15.45;2.80;;;8.60;99.90;;;;;;5056729;28;20021;-71
2022/01/20 12:11:02;;;;;;;10.18;2.22;;;8.30;99.90;;;;;;5063660;28;20128;-72
2022/01/20 12:13:27;;;;;;;19.55;2.88;;;8.10;99.90;;;;;;5060882;28;20397;-71
2022/01/20 12:16:00;;;;;;;13.70;2.10;;;8.50;99.90;;;;;;5057813;28;20037;-71
2022/01/20 12:18:26;;;;;;;8.90;2.05;;;8.90;99.90;;;;;;5067900;28;20024;-71
2022/01/20 12:20:52;;;;;;;9.20;1.70;;;9.00;99.90;;;;;;5056619;28;20032;-72
2022/01/20 12:23:19;;;;;;;8.35;1.65;;;8.90;99.90;;;;;;5064013;28;20423;-71
2022/01/20 12:25:45;;;;;;;14.35;2.97;;;8.60;99.90;;;;;;5053859;28;20051;-71
2022/01/20 12:28:14;;;;;;;7.72;1.75;;;8.30;99.90;;;;;;5067590;28;20036;-71
2022/01/20 12:30:45;;;;;;;6.75;1.42;;;7.90;99.90;;;;;;5052871;28;20065;-72
2022/01/20 12:33:13;;;;;;;6.28;1.30;;;7.60;99.90;;;;;;5058824;28;20103;-71
2022/01/20 12:35:41;;;;;;;9.85;2.58;;;7.30;99.90;;;;;;5059342;28;20025;-71
2022/01/20 12:38:41;;;;;;;10.50;1.92;;;7.10;99.90;;;;;;5061511;28;20047;-72
2022/01/20 12:41:17;;;;;;;9.00;1.73;;;7.20;99.90;;;;;;5049700;28;20128;-73
2022/01/20 12:43:56;;;;;;;10.25;1.48;;;7.50;99.90;;;;;;5053883;28;20393;-73
2022/01/20 12:46:27;;;;;;;10.18;1.88;;;7.70;99.90;;;;;;5069075;28;20036;-72
2022/01/20 12:48:52;;;;;;;10.27;1.50;;;7.70;99.90;;;;;;5071932;28;20035;-71
2022/01/20 12:51:19;;;;;;;12.88;1.55;;;7.70;99.90;;;;;;5066910;28;20104;-76
2022/01/20 12:53:55;;;;;;;9.07;1.20;;;8.00;99.90;;;;;;5070554;28;20043;-74
2022/01/20 12:56:32;;;;;;;7.32;1.30;;;8.40;99.90;;;;;;5064197;28;20025;-76
2022/01/20 12:58:58;;;;;;;7.47;2.35;;;8.80;99.90;;;;;;5057287;28;20040;-73
2022/01/20 13:01:24;;;;;;;9.07;1.20;;;9.10;99.90;;;;;;5071830;28;20028;-72
2022/01/20 13:03:50;;;;;;;10.65;1.90;;;9.40;99.90;;;;;;5063018;28;20030;-73
2022/01/20 13:06:23;;;;;;;13.07;2.50;;;9.70;99.90;;;;;;5061480;28;20052;-73
2022/01/20 13:08:59;;;;;;;12.55;1.80;;;9.90;99.90;;;;;;5056274;28;20017;-71
2022/01/20 13:11:30;;;;;;;9.07;1.50;;;9.90;99.90;;;;;;5073947;28;20013;-72
2022/01/20 13:13:58;;;;;;;9.52;1.92;;;9.80;99.90;;;;;;5065512;28;20056;-72
2022/01/20 13:16:24;;;;;;;11.38;2.05;;;9.50;99.90;;;;;;5068308;28;20017;-71
2022/01/20 13:18:57;;;;;;;15.18;2.38;;;9.20;99.90;;;;;;5057713;28;20090;-72
2022/01/20 13:21:52;;;;;;;9.00;1.80;;;8.90;99.90;;;;;;5068247;28;20029;-73
2022/01/20 13:24:28;;;;;;;16.92;2.50;;;8.90;99.90;;;;;;5054992;28;20033;-73
2022/01/20 13:26:55;;;;;;;12.38;2.60;;;8.90;99.90;;;;;;5070433;28;20082;-71
2022/01/20 13:29:23;;;;;;;10.50;1.95;;;9.00;99.90;;;;;;5058979;28;20033;-71
2022/01/20 13:31:59;;;;;;;18.88;2.83;;;9.20;99.90;;;;;;5055056;28;20025;-71
2022/01/20 13:34:24;;;;;;;20.23;3.35;;;9.30;99.90;;;;;;5053698;28;20104;-73
2022/01/20 13:36:54;;;;;;;18.98;3.17;;;9.60;99.90;;;;;;5066102;28;20120;-71
2022/01/20 13:39:29;;;;;;;16.67;2.75;;;9.60;99.90;;;;;;5070794;28;20020;-73
2022/01/20 13:45:23;;;;;;;17.77;2.90;;;9.10;99.90;;;;;;5068879;28;20044;-71
2022/01/20 13:47:50;;;;;;;11.70;2.70;;;8.90;99.90;;;;;;5034757;28;20041;-73
2022/01/20 13:50:23;;;;;;;15.32;2.38;;;8.80;99.90;;;;;;5070996;28;20036;-72
2022/01/20 13:52:49;;;;;;;14.85;2.70;;;8.70;99.90;;;;;;5066998;28;20485;-71
2022/01/20 13:55:22;;;;;;;15.00;2.20;;;8.60;99.90;;;;;;5071237;28;20016;-71
2022/01/20 13:57:48;;;;;;;8.68;1.95;;;8.40;99.90;;;;;;5048900;28;20036;-72
2022/01/20 14:00:15;;;;;;;9.05;1.90;;;8.00;99.90;;;;;;5064954;28;20385;-70
2022/01/20 14:02:47;;;;;;;8.98;1.65;;;7.50;99.90;;;;;;5037554;28;20036;-72
2022/01/20 14:05:13;;;;;;;13.13;2.03;;;7.00;99.90;;;;;;5057337;28;20040;-73
2022/01/20 14:07:38;;;;;;;17.45;2.58;;;6.50;99.90;;;;;;5071387;28;20029;-70
2022/01/20 14:10:04;;;;;;;13.00;1.70;;;6.10;99.90;;;;;;5063465;28;20363;-71